Time;durP1;ratioP1;P1;durP2;ratioP2;P2;SDS_P1;SDS_P2;PMS_P1;PMS_P2;Temp;Humidity;BMP_temperature;BMP_pressure;BME280_temperature;BME280_humidity;BME280_pressure;Samples;Min_cycle;Max_cycle;Signal;HPM_P1;HPM_P2
2022/10/12 00:01:36;;;;;;;34.53;18.65;;;11.90;99.90;;;;;;5072757;28;20427;-55
2022/10/12 00:04:02;;;;;;;27.80;17.92;;;11.90;99.90;;;;;;5072590;28;20024;-53
2022/10/12 00:06:27;;;;;;;31.02;19.65;;;11.90;99.90;;;;;;5072828;28;20433;-56
2022/10/12 00:08:53;;;;;;;26.73;18.25;;;11.80;99.90;;;;;;5072294;28;20041;-55
2022/10/12 00:11:22;;;;;;;25.83;19.20;;;11.80;99.90;;;;;;5072481;28;20035;-56
2022/10/12 00:13:48;;;;;;;39.28;19.98;;;11.80;99.90;;;;;;5072639;28;20244;-55
2022/10/12 00:16:16;;;;;;;41.78;21.20;;;11.70;99.90;;;;;;5070982;28;20035;-54
2022/10/12 00:18:42;;;;;;;40.80;20.10;;;11.60;99.90;;;;;;5072323;28;20052;-54
2022/10/12 00:21:13;;;;;;;32.55;20.88;;;11.60;99.90;;;;;;5071163;28;20110;-52
2022/10/12 00:23:40;;;;;;;33.08;20.20;;;11.50;99.90;;;;;;5072404;28;20414;-55
2022/10/12 00:26:16;;;;;;;37.80;20.95;;;11.50;99.90;;;;;;5072067;28;20028;-52
2022/10/12 00:28:42;;;;;;;32.72;22.63;;;11.40;99.90;;;;;;5072243;28;20017;-56
2022/10/12 00:31:16;;;;;;;27.98;20.67;;;11.40;99.90;;;;;;5072010;28;20051;-54
2022/10/12 00:33:43;;;;;;;41.22;23.02;;;11.40;99.90;;;;;;5072121;28;20017;-53
2022/10/12 00:36:18;;;;;;;50.83;22.85;;;11.40;99.90;;;;;;5071920;28;20496;-55
2022/10/12 00:38:44;;;;;;;33.55;23.63;;;11.30;99.90;;;;;;5072082;28;20028;-56
2022/10/12 00:41:11;;;;;;;39.10;24.65;;;11.30;99.90;;;;;;5070562;28;20047;-54
2022/10/12 00:43:40;;;;;;;43.03;25.08;;;11.30;99.90;;;;;;5071809;28;20040;-56
2022/10/12 00:46:35;;;;;;;37.92;23.73;;;11.30;99.90;;;;;;5071905;28;20104;-55
2022/10/12 00:49:09;;;;;;;35.00;23.45;;;11.30;99.90;;;;;;5071140;28;20033;-53
2022/10/12 00:51:37;;;;;;;37.25;24.58;;;11.40;99.90;;;;;;5072074;28;20099;-53
2022/10/12 00:54:05;;;;;;;38.13;24.88;;;11.40;99.90;;;;;;5071487;28;20498;-56
2022/10/12 00:56:37;;;;;;;36.30;24.08;;;11.40;99.90;;;;;;5071807;28;20043;-56
2022/10/12 00:59:09;;;;;;;34.85;24.10;;;11.40;99.90;;;;;;5071623;28;20044;-55
2022/10/12 01:01:36;;;;;;;30.27;23.75;;;11.40;99.90;;;;;;5071531;28;20101;-54
2022/10/12 01:04:04;;;;;;;36.35;24.77;;;11.40;99.90;;;;;;5071064;28;20107;-53
2022/10/12 01:06:30;;;;;;;38.55;23.33;;;11.40;99.90;;;;;;5071456;28;20025;-54
2022/10/12 01:08:57;;;;;;;33.03;23.58;;;11.40;99.90;;;;;;5071164;28;20052;-53
2022/10/12 01:11:22;;;;;;;39.58;24.08;;;11.40;99.90;;;;;;5071325;28;20104;-55
2022/10/12 01:13:48;;;;;;;37.85;22.77;;;11.40;99.90;;;;;;5071270;28;20626;-55
2022/10/12 01:16:34;;;;;;;28.73;22.35;;;11.40;99.90;;;;;;5071138;28;20028;-54
2022/10/12 01:19:03;;;;;;;35.20;23.27;;;11.40;99.90;;;;;;5071012;28;20027;-55
2022/10/12 01:21:31;;;;;;;34.33;22.55;;;11.40;99.90;;;;;;5071203;28;20031;-54
2022/10/12 01:24:34;;;;;;;35.35;21.60;;;11.30;99.90;;;;;;5071124;28;20399;-57
2022/10/12 01:27:18;;;;;;;31.85;20.83;;;11.30;99.90;;;;;;5071236;28;20111;-53
2022/10/12 01:30:15;;;;;;;35.83;21.63;;;11.40;99.90;;;;;;5070891;28;20115;-56
2022/10/12 01:32:59;;;;;;;37.28;21.55;;;11.30;99.90;;;;;;5070196;28;20086;-56
2022/10/12 01:35:32;;;;;;;31.27;21.83;;;11.30;99.90;;;;;;5069631;28;20027;-55
2022/10/12 01:38:16;;;;;;;39.33;21.75;;;11.30;99.90;;;;;;5070676;28;20051;-57
2022/10/12 01:41:17;;;;;;;28.15;21.08;;;11.30;99.90;;;;;;5070871;28;20434;-56
2022/10/12 01:43:44;;;;;;;28.80;21.23;;;11.30;99.90;;;;;;5070324;28;20036;-54
2022/10/12 01:46:15;;;;;;;39.17;22.70;;;11.30;99.90;;;;;;5069182;28;20020;-53
2022/10/12 01:48:43;;;;;;;33.70;22.13;;;11.30;99.90;;;;;;5070758;28;20078;-54
2022/10/12 01:51:14;;;;;;;33.47;22.52;;;11.30;99.90;;;;;;5070723;28;20033;-53
2022/10/12 01:53:56;;;;;;;37.83;22.42;;;11.30;99.90;;;;;;5070577;28;20013;-56
2022/10/12 01:56:49;;;;;;;33.05;22.05;;;11.30;99.90;;;;;;5070616;28;20039;-54
2022/10/12 01:59:20;;;;;;;30.67;20.65;;;11.30;99.90;;;;;;5069715;28;20208;-57
2022/10/12 02:02:05;;;;;;;34.47;22.77;;;11.30;99.90;;;;;;5069312;28;20027;-55
2022/10/12 02:04:56;;;;;;;28.85;21.90;;;11.20;99.90;;;;;;5070411;28;20077;-55
2022/10/12 02:07:30;;;;;;;32.00;21.77;;;11.30;99.90;;;;;;5070236;28;20459;-56
2022/10/12 02:09:58;;;;;;;37.10;21.10;;;11.30;99.90;;;;;;5068725;28;20064;-57
2022/10/12 02:12:28;;;;;;;28.17;21.77;;;11.20;99.90;;;;;;5070430;28;20127;-57
2022/10/12 02:14:59;;;;;;;31.35;22.98;;;11.20;99.90;;;;;;5070388;28;20097;-57
2022/10/12 02:17:24;;;;;;;35.55;22.02;;;11.20;99.90;;;;;;5069485;28;20036;-56
2022/10/12 02:19:56;;;;;;;34.95;23.90;;;11.20;99.90;;;;;;5070310;28;20032;-55
2022/10/12 02:22:25;;;;;;;30.42;21.40;;;11.20;99.90;;;;;;5070498;28;20372;-55
2022/10/12 02:24:53;;;;;;;39.55;23.83;;;11.20;99.90;;;;;;5070331;28;20210;-56
2022/10/12 02:27:20;;;;;;;36.28;24.27;;;11.20;99.90;;;;;;5070118;28;20025;-55
2022/10/12 02:29:47;;;;;;;32.17;23.70;;;11.20;99.90;;;;;;5070251;28;20411;-56
2022/10/12 02:32:37;;;;;;;38.38;24.80;;;11.10;99.90;;;;;;5070022;28;20032;-54
2022/10/12 02:35:15;;;;;;;43.13;24.90;;;11.10;99.90;;;;;;5070156;28;20051;-54
2022/10/12 02:38:24;;;;;;;35.92;24.30;;;11.10;99.90;;;;;;5070390;28;20062;-55
2022/10/12 02:40:57;;;;;;;33.30;23.50;;;11.10;99.90;;;;;;5069564;28;20081;-54
2022/10/12 02:43:30;;;;;;;35.75;22.92;;;11.00;99.90;;;;;;5070008;28;20021;-55
2022/10/12 02:45:57;;;;;;;32.95;24.00;;;11.00;99.90;;;;;;5069920;28;20033;-54
2022/10/12 02:48:24;;;;;;;31.77;23.85;;;11.00;99.90;;;;;;5070066;28;20024;-55
2022/10/12 02:50:55;;;;;;;40.22;24.38;;;11.00;99.90;;;;;;5068620;28;20394;-55
2022/10/12 02:53:22;;;;;;;36.38;23.45;;;11.00;99.90;;;;;;5069951;28;20032;-55
2022/10/12 02:55:58;;;;;;;29.15;23.95;;;11.00;99.90;;;;;;5070168;28;20020;-54
2022/10/12 02:58:24;;;;;;;47.90;25.70;;;11.00;99.90;;;;;;5069929;28;20021;-55
2022/10/12 03:00:50;;;;;;;29.98;23.45;;;11.00;99.90;;;;;;5068601;28;20024;-55
2022/10/12 03:03:16;;;;;;;32.45;22.60;;;11.00;99.90;;;;;;5069760;28;20033;-54
2022/10/12 03:05:42;;;;;;;40.83;24.60;;;11.00;99.90;;;;;;5069912;28;20396;-56
2022/10/12 03:08:07;;;;;;;38.97;26.42;;;11.00;99.90;;;;;;5069689;28;20024;-54
2022/10/12 03:10:33;;;;;;;40.33;24.58;;;10.90;99.90;;;;;;5069684;28;20055;-53
2022/10/12 03:12:59;;;;;;;38.05;26.45;;;10.90;99.90;;;;;;5069615;28;20086;-57
2022/10/12 03:15:25;;;;;;;45.30;26.65;;;10.90;99.90;;;;;;5069889;28;20017;-56
2022/10/12 03:17:50;;;;;;;46.08;24.85;;;10.90;99.90;;;;;;5069604;28;20383;-55
2022/10/12 03:20:16;;;;;;;38.30;26.85;;;10.90;99.90;;;;;;5069502;28;20514;-55
2022/10/12 03:22:41;;;;;;;38.78;26.42;;;10.90;99.90;;;;;;5069990;28;20404;-53
2022/10/12 03:25:07;;;;;;;40.92;25.85;;;10.90;99.90;;;;;;5069519;28;20485;-54
2022/10/12 03:27:33;;;;;;;37.50;26.50;;;10.90;99.90;;;;;;5070534;28;20024;-53
2022/10/12 03:29:58;;;;;;;41.83;27.92;;;11.00;99.90;;;;;;5073113;28;20047;-56
2022/10/12 03:32:24;;;;;;;40.85;26.02;;;10.90;99.90;;;;;;5073351;28;20020;-54
2022/10/12 03:34:50;;;;;;;46.33;27.02;;;10.90;99.90;;;;;;5073299;28;20078;-55
2022/10/12 03:37:16;;;;;;;35.45;25.65;;;10.90;99.90;;;;;;5071672;28;20502;-57
2022/10/12 03:39:41;;;;;;;33.47;25.08;;;10.90;99.90;;;;;;5073063;28;20108;-53
2022/10/12 03:42:07;;;;;;;43.05;26.75;;;10.90;99.90;;;;;;5072993;28;20029;-54
2022/10/12 03:44:33;;;;;;;49.67;27.15;;;10.90;99.90;;;;;;5073131;28;20455;-56
2022/10/12 03:46:58;;;;;;;42.70;28.45;;;10.80;99.90;;;;;;5071381;28;20037;-54
2022/10/12 03:49:24;;;;;;;42.22;28.10;;;10.80;99.90;;;;;;5072743;28;20025;-55
2022/10/12 03:51:50;;;;;;;37.28;26.75;;;10.80;99.90;;;;;;5072900;28;20039;-54
2022/10/12 03:54:15;;;;;;;45.72;27.33;;;10.90;99.90;;;;;;5073001;28;20030;-56
2022/10/12 03:56:41;;;;;;;39.53;28.00;;;10.80;99.90;;;;;;5072774;28;20031;-55
2022/10/12 03:59:07;;;;;;;55.83;29.50;;;10.90;99.90;;;;;;5072624;28;20056;-53
2022/10/12 04:01:32;;;;;;;39.63;28.13;;;10.90;99.90;;;;;;5072693;28;20515;-56
2022/10/12 04:03:58;;;;;;;42.42;27.65;;;10.90;99.90;;;;;;5071359;28;20035;-55
2022/10/12 04:06:24;;;;;;;42.25;29.52;;;10.90;99.90;;;;;;5072594;28;20028;-55
2022/10/12 04:08:49;;;;;;;36.88;27.85;;;10.90;99.90;;;;;;5071098;28;20041;-54
2022/10/12 04:11:15;;;;;;;41.78;29.77;;;11.00;99.90;;;;;;5072444;28;20036;-57
2022/10/12 04:13:42;;;;;;;40.25;27.58;;;11.00;99.90;;;;;;5072650;28;20019;-57
2022/10/12 04:16:08;;;;;;;45.72;28.50;;;11.00;99.90;;;;;;5072342;28;20031;-56
2022/10/12 04:18:34;;;;;;;39.38;27.42;;;11.10;99.90;;;;;;5072467;28;20092;-56
2022/10/12 04:21:00;;;;;;;42.33;26.48;;;11.00;99.90;;;;;;5072401;28;20107;-55
2022/10/12 04:23:26;;;;;;;45.42;27.48;;;11.10;99.90;;;;;;5072625;28;20383;-55
2022/10/12 04:25:52;;;;;;;41.05;28.08;;;11.10;99.90;;;;;;5072214;28;20032;-56
2022/10/12 04:28:17;;;;;;;40.22;28.52;;;11.10;99.90;;;;;;5070869;28;20034;-55
2022/10/12 04:30:44;;;;;;;45.40;27.10;;;11.10;99.90;;;;;;5072186;28;20028;-54
2022/10/12 04:33:10;;;;;;;44.78;27.80;;;11.10;99.90;;;;;;5071983;28;20035;-53
2022/10/12 04:35:36;;;;;;;36.58;29.92;;;11.10;99.90;;;;;;5070787;28;20017;-53
2022/10/12 04:38:03;;;;;;;46.15;28.38;;;11.00;99.90;;;;;;5071965;28;20020;-56
2022/10/12 04:40:29;;;;;;;34.30;26.45;;;11.00;99.90;;;;;;5071535;28;20033;-54
2022/10/12 04:42:55;;;;;;;37.95;26.25;;;11.10;99.90;;;;;;5071842;28;20040;-56
2022/10/12 04:45:21;;;;;;;38.60;27.52;;;11.10;99.90;;;;;;5071924;28;20031;-54
2022/10/12 04:47:46;;;;;;;46.28;28.00;;;11.10;99.90;;;;;;5071820;28;20032;-55
2022/10/12 04:50:12;;;;;;;47.17;28.75;;;11.10;99.90;;;;;;5070539;28;20020;-52
2022/10/12 04:52:38;;;;;;;36.38;27.27;;;11.10;99.90;;;;;;5071712;28;20023;-56
2022/10/12 04:55:04;;;;;;;47.72;28.83;;;11.10;99.90;;;;;;5070191;28;20209;-54
2022/10/12 04:57:30;;;;;;;44.47;29.13;;;11.10;99.90;;;;;;5071674;28;20074;-57
2022/10/12 04:59:55;;;;;;;41.78;28.92;;;11.00;99.90;;;;;;5070496;28;20028;-54
2022/10/12 05:02:21;;;;;;;44.97;30.23;;;11.10;99.90;;;;;;5071518;28;20056;-56
2022/10/12 05:04:47;;;;;;;44.53;29.17;;;11.10;99.90;;;;;;5071468;28;20025;-57
2022/10/12 05:07:12;;;;;;;39.60;28.77;;;11.10;99.90;;;;;;5071403;28;20408;-54
2022/10/12 05:09:38;;;;;;;38.58;27.77;;;11.10;99.90;;;;;;5071241;28;20043;-57
2022/10/12 05:12:04;;;;;;;43.55;28.83;;;11.10;99.90;;;;;;5071342;28;20100;-53
2022/10/12 05:14:30;;;;;;;39.30;27.50;;;11.10;99.90;;;;;;5071133;28;20032;-53
2022/10/12 05:16:55;;;;;;;46.60;29.20;;;11.10;99.90;;;;;;5071240;28;20017;-53
2022/10/12 05:19:21;;;;;;;45.47;28.83;;;11.20;99.90;;;;;;5071349;28;20220;-53
2022/10/12 05:21:47;;;;;;;47.28;30.23;;;11.20;99.90;;;;;;5071183;28;20367;-55
2022/10/12 05:24:12;;;;;;;38.47;29.38;;;11.20;99.90;;;;;;5070932;28;20458;-56
2022/10/12 05:26:38;;;;;;;50.28;30.25;;;11.20;99.90;;;;;;5071039;28;20028;-53
2022/10/12 05:29:03;;;;;;;48.22;30.85;;;11.20;99.90;;;;;;5069788;28;20391;-55
2022/10/12 05:31:29;;;;;;;42.38;27.58;;;11.20;99.90;;;;;;5070985;28;20031;-54
2022/10/12 05:33:55;;;;;;;39.30;28.48;;;11.30;99.90;;;;;;5070815;28;20027;-53
2022/10/12 05:36:21;;;;;;;39.70;29.33;;;11.30;99.90;;;;;;5070925;28;20017;-52
2022/10/12 05:38:47;;;;;;;40.58;30.02;;;11.30;99.90;;;;;;5071006;28;20492;-55
2022/10/12 05:41:13;;;;;;;49.25;29.80;;;11.30;99.90;;;;;;5070703;28;20511;-56
2022/10/12 05:43:39;;;;;;;45.40;29.17;;;11.30;99.90;;;;;;5070576;28;20031;-55
2022/10/12 05:46:04;;;;;;;37.65;29.70;;;11.30;99.90;;;;;;5069378;28;20450;-53
2022/10/12 05:48:30;;;;;;;48.33;29.30;;;11.30;99.90;;;;;;5070924;28;20400;-57
2022/10/12 05:50:56;;;;;;;43.85;29.50;;;11.30;99.90;;;;;;5069471;28;20104;-53
2022/10/12 05:53:22;;;;;;;49.13;30.60;;;11.40;99.90;;;;;;5070630;28;20641;-52
2022/10/12 05:55:56;;;;;;;38.63;29.05;;;11.40;99.90;;;;;;5070653;28;20020;-53
2022/10/12 05:58:22;;;;;;;46.17;30.98;;;11.40;99.90;;;;;;5070654;28;20028;-54
2022/10/12 06:00:48;;;;;;;43.85;29.73;;;11.40;99.90;;;;;;5070471;28;20052;-54
2022/10/12 06:03:14;;;;;;;43.00;30.15;;;11.40;99.90;;;;;;5070415;28;20831;-52
2022/10/12 06:05:40;;;;;;;53.38;29.90;;;11.40;99.90;;;;;;5069182;28;20025;-55
2022/10/12 06:08:07;;;;;;;46.42;31.45;;;11.40;99.90;;;;;;5070441;28;20491;-53
2022/10/12 06:10:34;;;;;;;50.90;31.65;;;11.40;99.90;;;;;;5069913;28;20507;-52
2022/10/12 06:13:00;;;;;;;44.83;30.67;;;11.40;99.90;;;;;;5070181;28;20086;-54
2022/10/12 06:15:26;;;;;;;42.38;28.83;;;11.40;99.90;;;;;;5069232;28;20079;-55
2022/10/12 06:17:52;;;;;;;37.80;28.50;;;11.40;99.90;;;;;;5070410;28;20028;-52
2022/10/12 06:20:17;;;;;;;49.25;31.38;;;11.50;99.90;;;;;;5070150;28;20020;-56
2022/10/12 06:22:43;;;;;;;37.83;28.95;;;11.50;99.90;;;;;;5070218;28;20067;-56
2022/10/12 06:25:09;;;;;;;53.53;31.67;;;11.50;99.90;;;;;;5070137;28;20070;-56
2022/10/12 06:27:34;;;;;;;49.42;30.20;;;11.50;99.90;;;;;;5070361;28;20035;-55
2022/10/12 06:30:00;;;;;;;46.08;28.63;;;11.50;99.90;;;;;;5069926;28;20460;-52
2022/10/12 06:32:26;;;;;;;39.08;29.48;;;11.50;99.90;;;;;;5070197;28;20119;-56
2022/10/12 06:34:51;;;;;;;42.13;29.17;;;11.50;99.90;;;;;;5070158;28;20082;-55
2022/10/12 06:37:17;;;;;;;45.08;28.27;;;11.40;99.90;;;;;;5070141;28;20017;-53
2022/10/12 06:39:43;;;;;;;37.40;26.95;;;11.50;99.90;;;;;;5070066;28;20353;-55
2022/10/12 06:42:10;;;;;;;42.13;29.70;;;11.60;99.90;;;;;;5070062;28;20372;-55
2022/10/12 06:44:35;;;;;;;34.78;24.77;;;11.50;99.90;;;;;;5070146;28;20025;-54
2022/10/12 06:47:01;;;;;;;40.92;27.55;;;11.60;99.90;;;;;;5070012;28;20025;-55
2022/10/12 06:49:27;;;;;;;38.17;26.80;;;11.60;99.90;;;;;;5069913;28;20052;-56
2022/10/12 06:51:52;;;;;;;50.30;27.63;;;11.60;99.90;;;;;;5069955;28;20099;-56
2022/10/12 06:54:18;;;;;;;42.10;27.50;;;11.60;99.90;;;;;;5070354;28;20069;-56
2022/10/12 06:56:43;;;;;;;35.65;26.13;;;11.60;99.90;;;;;;5070260;28;20096;-53
2022/10/12 06:59:12;;;;;;;37.53;26.80;;;11.70;99.90;;;;;;5068525;28;20468;-54
2022/10/12 07:01:38;;;;;;;41.55;24.83;;;11.70;99.90;;;;;;5069799;28;20047;-55
2022/10/12 07:04:04;;;;;;;44.67;25.58;;;11.80;99.90;;;;;;5073209;28;20020;-54
2022/10/12 07:06:30;;;;;;;38.22;25.60;;;11.80;99.90;;;;;;5072689;28;20070;-55
2022/10/12 07:08:55;;;;;;;40.20;24.92;;;11.80;99.90;;;;;;5072058;28;20298;-55
2022/10/12 07:11:21;;;;;;;38.00;26.20;;;11.80;99.90;;;;;;5073611;28;20373;-54
2022/10/12 07:13:47;;;;;;;38.22;25.63;;;11.70;99.90;;;;;;5072535;28;20106;-55
2022/10/12 07:16:12;;;;;;;34.58;25.92;;;11.70;99.90;;;;;;5073620;28;20103;-53
2022/10/12 07:18:39;;;;;;;40.95;24.60;;;11.80;99.90;;;;;;5073461;28;20027;-56
2022/10/12 07:21:05;;;;;;;33.22;25.42;;;11.80;99.90;;;;;;5073377;28;20056;-55
2022/10/12 07:23:32;;;;;;;36.97;24.20;;;11.80;99.90;;;;;;5072152;28;20554;-56
2022/10/12 07:25:58;;;;;;;35.63;24.58;;;11.80;99.90;;;;;;5073309;28;20039;-53
2022/10/12 07:28:25;;;;;;;32.05;24.52;;;11.80;99.90;;;;;;5073296;28;20028;-54
2022/10/12 07:30:50;;;;;;;30.42;23.52;;;11.80;99.90;;;;;;5073488;28;20039;-54
2022/10/12 07:33:16;;;;;;;38.28;22.73;;;12.00;99.90;;;;;;5073299;28;20596;-57
2022/10/12 07:35:42;;;;;;;40.35;23.05;;;12.00;99.90;;;;;;5073339;28;20021;-55
2022/10/12 07:38:07;;;;;;;41.05;21.48;;;12.10;99.90;;;;;;5072918;28;20344;-56
2022/10/12 07:40:33;;;;;;;31.25;21.83;;;12.00;99.90;;;;;;5073178;28;20033;-57
2022/10/12 07:42:59;;;;;;;33.15;22.52;;;12.10;99.90;;;;;;5073276;28;20035;-52
2022/10/12 07:45:27;;;;;;;37.45;22.35;;;12.20;99.90;;;;;;5073138;28;21123;-54
2022/10/12 07:47:56;;;;;;;36.08;22.27;;;12.10;99.90;;;;;;5071687;28;20138;-57
2022/10/12 07:50:24;;;;;;;33.10;22.60;;;12.20;99.90;;;;;;5071617;28;20494;-54
2022/10/12 07:52:49;;;;;;;37.30;22.15;;;12.20;99.90;;;;;;5073044;28;20435;-53
2022/10/12 07:55:15;;;;;;;34.15;20.98;;;12.30;99.90;;;;;;5072748;28;20025;-55
2022/10/12 07:57:43;;;;;;;33.83;20.23;;;12.40;99.90;;;;;;5072801;28;20483;-56
2022/10/12 08:00:09;;;;;;;30.73;20.25;;;12.40;99.90;;;;;;5072681;28;20028;-54
2022/10/12 08:02:35;;;;;;;31.45;21.15;;;12.50;99.90;;;;;;5072985;28;20035;-54
2022/10/12 08:05:00;;;;;;;41.47;18.65;;;12.50;99.90;;;;;;5071195;28;20427;-54
2022/10/12 08:07:26;;;;;;;30.98;19.15;;;12.60;99.90;;;;;;5072544;28;20478;-54
2022/10/12 08:09:51;;;;;;;34.30;19.48;;;12.70;99.90;;;;;;5072388;28;20033;-57
2022/10/12 08:12:17;;;;;;;30.58;18.63;;;12.70;99.90;;;;;;5072647;28;20016;-53
2022/10/12 08:14:43;;;;;;;29.70;19.42;;;12.70;99.90;;;;;;5071460;28;20033;-53
2022/10/12 08:17:08;;;;;;;32.72;19.42;;;12.70;99.90;;;;;;5072388;28;20106;-54
2022/10/12 08:19:35;;;;;;;27.48;17.27;;;12.60;99.90;;;;;;5072497;28;20080;-52
2022/10/12 08:22:01;;;;;;;26.73;18.60;;;12.70;99.90;;;;;;5072295;28;20028;-55
2022/10/12 08:24:26;;;;;;;37.72;19.27;;;12.70;99.90;;;;;;5072255;28;20475;-56
2022/10/12 08:26:52;;;;;;;29.15;20.75;;;12.70;99.90;;;;;;5072288;28;20036;-56
2022/10/12 08:29:18;;;;;;;26.08;19.20;;;12.70;99.90;;;;;;5072093;28;20031;-55
2022/10/12 08:31:43;;;;;;;29.10;22.65;;;12.80;99.90;;;;;;5072375;28;20100;-53
2022/10/12 08:34:09;;;;;;;26.83;17.95;;;12.90;99.90;;;;;;5072075;28;20451;-53
2022/10/12 08:36:34;;;;;;;34.22;18.20;;;12.90;99.90;;;;;;5071958;28;20021;-55
2022/10/12 08:39:01;;;;;;;25.73;19.13;;;12.90;99.90;;;;;;5071888;28;20454;-56
2022/10/12 08:41:35;;;;;;;29.52;18.45;;;12.90;99.90;;;;;;5072430;28;20067;-54
2022/10/12 08:44:45;;;;;;;32.17;18.83;;;13.10;99.90;;;;;;5071721;28;20082;-55
2022/10/12 08:47:18;;;;;;;27.05;19.70;;;13.10;99.90;;;;;;5071959;28;20021;-55
2022/10/12 08:49:46;;;;;;;32.80;19.88;;;13.10;99.90;;;;;;5071851;28;20039;-55
2022/10/12 08:52:29;;;;;;;29.67;20.48;;;13.20;99.90;;;;;;5071777;28;20077;-56
2022/10/12 08:55:04;;;;;;;29.48;17.70;;;13.20;99.90;;;;;;5071641;28;20056;-54
2022/10/12 08:57:29;;;;;;;37.13;19.00;;;13.40;99.90;;;;;;5071831;28;20039;-54
2022/10/12 08:59:55;;;;;;;30.27;18.08;;;13.50;99.90;;;;;;5071673;28;20025;-56
2022/10/12 09:02:30;;;;;;;38.30;18.75;;;13.50;99.90;;;;;;5071587;28;20016;-56
2022/10/12 09:05:04;;;;;;;30.08;17.17;;;13.40;99.90;;;;;;5071351;28;20107;-56
2022/10/12 09:07:58;;;;;;;34.17;18.42;;;13.40;99.90;;;;;;5071528;28;20039;-56
2022/10/12 09:10:37;;;;;;;45.38;18.58;;;13.40;99.90;;;;;;5071330;28;20041;-56
2022/10/12 09:13:22;;;;;;;36.25;17.35;;;13.20;99.90;;;;;;5071202;28;20024;-55
2022/10/12 09:16:01;;;;;;;54.20;20.05;;;13.20;99.90;;;;;;5071310;28;20063;-58
2022/10/12 09:18:39;;;;;;;45.72;17.48;;;13.10;99.90;;;;;;5071255;28;20375;-55
2022/10/12 09:21:16;;;;;;;27.40;16.13;;;13.30;99.90;;;;;;5069823;28;20025;-57
2022/10/12 09:23:43;;;;;;;27.67;18.27;;;13.50;99.90;;;;;;5069905;28;20025;-55
2022/10/12 09:26:19;;;;;;;23.85;16.30;;;13.60;99.90;;;;;;5070809;28;20051;-56
2022/10/12 09:28:53;;;;;;;37.60;17.30;;;14.00;99.90;;;;;;5071065;28;20021;-56
2022/10/12 09:31:38;;;;;;;33.20;15.02;;;14.10;99.90;;;;;;5070948;28;20027;-54
2022/10/12 09:34:06;;;;;;;36.13;16.85;;;14.30;99.90;;;;;;5070865;28;20104;-57
2022/10/12 09:36:38;;;;;;;26.95;16.63;;;14.50;99.90;;;;;;5071000;28;20432;-55
2022/10/12 09:39:17;;;;;;;35.42;15.20;;;14.70;99.90;;;;;;5070668;28;20020;-56
2022/10/12 09:41:45;;;;;;;25.92;16.92;;;14.90;99.90;;;;;;5069519;28;20119;-56
2022/10/12 09:44:25;;;;;;;34.20;16.20;;;15.20;99.90;;;;;;5069228;28;20032;-57
2022/10/12 09:46:53;;;;;;;23.92;14.63;;;15.50;99.90;;;;;;5070806;28;20043;-56
2022/10/12 09:49:19;;;;;;;28.83;16.20;;;15.70;99.90;;;;;;5070844;28;20079;-56
2022/10/12 09:51:45;;;;;;;35.88;16.40;;;15.50;99.90;;;;;;5071309;28;20016;-53
2022/10/12 09:54:21;;;;;;;42.97;16.58;;;15.40;99.90;;;;;;5070556;28;20071;-57
2022/10/12 09:56:51;;;;;;;38.67;17.42;;;15.20;99.90;;;;;;5070483;28;20029;-56
2022/10/12 09:59:42;;;;;;;31.85;17.25;;;14.90;99.90;;;;;;5070530;28;20020;-54
2022/10/12 10:02:23;;;;;;;25.42;16.02;;;14.80;99.90;;;;;;5070135;28;20021;-52
2022/10/12 10:04:50;;;;;;;28.98;16.33;;;14.70;99.90;;;;;;5070589;28;20405;-56
2022/10/12 10:07:27;;;;;;;32.33;16.58;;;14.90;99.90;;;;;;5070267;28;20031;-55
2022/10/12 10:10:09;;;;;;;30.63;18.50;;;14.80;99.90;;;;;;5070239;28;20036;-56
2022/10/12 10:12:52;;;;;;;84.53;43.53;;;14.70;99.90;;;;;;5070341;28;20021;-54
2022/10/12 10:15:28;;;;;;;35.75;19.05;;;14.70;99.90;;;;;;5070600;28;20078;-54
2022/10/12 10:17:58;;;;;;;29.27;17.80;;;14.90;99.90;;;;;;5070490;28;20063;-57
2022/10/12 10:20:55;;;;;;;28.88;15.63;;;15.00;99.90;;;;;;5070142;28;20361;-56
2022/10/12 10:23:28;;;;;;;31.08;17.33;;;15.20;99.90;;;;;;5070382;28;20032;-54
2022/10/12 10:26:12;;;;;;;31.50;15.18;;;15.40;99.90;;;;;;5070206;28;20021;-56
2022/10/12 10:28:43;;;;;;;30.00;15.38;;;15.40;99.90;;;;;;5070310;28;20024;-54
2022/10/12 10:31:16;;;;;;;25.05;15.75;;;15.30;99.90;;;;;;5069901;28;20024;-54
2022/10/12 10:33:42;;;;;;;24.20;16.15;;;15.30;99.90;;;;;;5070336;28;20017;-55
2022/10/12 10:36:25;;;;;;;26.55;15.18;;;15.40;99.90;;;;;;5070171;28;20035;-53
2022/10/12 10:39:01;;;;;;;25.85;16.30;;;15.60;99.90;;;;;;5076324;28;20052;-55
2022/10/12 10:41:38;;;;;;;27.65;16.52;;;15.70;99.90;;;;;;5076814;28;20036;-56
2022/10/12 10:44:21;;;;;;;26.95;15.35;;;15.60;99.90;;;;;;5076623;28;20028;-55
2022/10/12 10:46:47;;;;;;;37.20;18.27;;;15.60;99.90;;;;;;5077026;28;20215;-53
2022/10/12 10:49:24;;;;;;;25.73;16.63;;;15.70;99.90;;;;;;5076617;28;20032;-55
2022/10/12 10:51:53;;;;;;;25.88;17.27;;;15.80;99.90;;;;;;5076692;28;20024;-55
2022/10/12 10:54:21;;;;;;;23.95;17.02;;;15.70;99.90;;;;;;5077019;28;20074;-56
2022/10/12 10:56:50;;;;;;;30.38;16.95;;;15.50;99.90;;;;;;5076686;28;20419;-56
2022/10/12 10:59:23;;;;;;;25.42;16.98;;;15.50;99.90;;;;;;5076390;28;20028;-54
2022/10/12 11:01:53;;;;;;;27.03;18.73;;;15.40;99.90;;;;;;5076752;28;20450;-53
2022/10/12 11:04:25;;;;;;;24.73;16.17;;;15.50;99.90;;;;;;5076333;28;20070;-54
2022/10/12 11:06:55;;;;;;;27.08;17.73;;;15.50;99.90;;;;;;5076483;28;20035;-56
2022/10/12 11:09:32;;;;;;;34.03;19.05;;;15.40;99.90;;;;;;5076383;28;20068;-54
2022/10/12 11:12:27;;;;;;;25.60;16.70;;;15.30;99.90;;;;;;5076354;28;20029;-53
2022/10/12 11:14:57;;;;;;;25.10;15.95;;;15.30;99.90;;;;;;5076238;28;20478;-53
2022/10/12 11:17:32;;;;;;;32.35;16.33;;;15.30;99.90;;;;;;5076478;28;20020;-53
2022/10/12 11:20:16;;;;;;;28.92;17.27;;;15.30;99.90;;;;;;5076248;28;20028;-52
2022/10/12 11:22:42;;;;;;;25.05;16.42;;;15.40;99.90;;;;;;5076421;28;20028;-53
2022/10/12 11:25:19;;;;;;;26.83;16.40;;;15.40;99.90;;;;;;5076113;28;20032;-53
2022/10/12 11:27:45;;;;;;;28.52;17.15;;;15.40;99.90;;;;;;5076699;28;20396;-54
2022/10/12 11:30:14;;;;;;;22.55;14.98;;;15.40;99.90;;;;;;5076081;28;20031;-55
2022/10/12 11:32:41;;;;;;;22.73;14.00;;;15.40;99.90;;;;;;5076337;28;20025;-56
2022/10/12 11:35:14;;;;;;;37.97;17.50;;;15.30;99.90;;;;;;5076565;28;20207;-56
2022/10/12 11:37:49;;;;;;;19.98;13.60;;;15.30;99.90;;;;;;5076203;28;20496;-54
2022/10/12 11:40:30;;;;;;;27.30;15.70;;;15.30;99.90;;;;;;5076161;28;20032;-55
2022/10/12 11:42:59;;;;;;;22.17;15.98;;;15.10;99.90;;;;;;5076289;28;20055;-57
2022/10/12 11:45:29;;;;;;;25.13;14.75;;;15.00;99.90;;;;;;5076156;28;20020;-52
2022/10/12 11:48:04;;;;;;;29.05;14.93;;;14.80;99.90;;;;;;5076111;28;20082;-56
2022/10/12 11:50:35;;;;;;;28.92;16.38;;;14.90;99.90;;;;;;5072964;28;20028;-54
2022/10/12 11:53:06;;;;;;;28.48;16.60;;;14.90;99.90;;;;;;5072853;28;20020;-54
2022/10/12 11:55:49;;;;;;;20.10;15.10;;;14.90;99.90;;;;;;5072973;28;20111;-54
2022/10/12 11:58:22;;;;;;;24.75;15.05;;;15.00;99.90;;;;;;5072767;28;20025;-56
2022/10/12 12:01:19;;;;;;;27.50;15.68;;;15.00;99.90;;;;;;5072765;28;20324;-54
2022/10/12 12:03:54;;;;;;;24.50;15.65;;;14.90;99.90;;;;;;5072923;28;20069;-56
2022/10/12 12:06:28;;;;;;;26.17;15.55;;;15.00;99.90;;;;;;5072877;28;20416;-55
2022/10/12 12:08:54;;;;;;;26.88;16.05;;;14.80;99.90;;;;;;5072291;28;20127;-53
2022/10/12 12:11:23;;;;;;;22.25;16.08;;;14.80;99.90;;;;;;5072563;28;20107;-53
2022/10/12 12:13:49;;;;;;;18.92;15.32;;;14.90;99.90;;;;;;5072647;28;20025;-57
2022/10/12 12:16:15;;;;;;;34.92;17.50;;;14.90;99.90;;;;;;5072600;28;20527;-56
2022/10/12 12:19:09;;;;;;;21.52;15.27;;;15.00;99.90;;;;;;5072716;28;20475;-55
2022/10/12 12:22:09;;;;;;;22.15;16.13;;;15.10;99.90;;;;;;5071959;28;20040;-56
2022/10/12 12:24:36;;;;;;;31.40;15.98;;;15.00;99.90;;;;;;5072462;28;20074;-57
2022/10/12 12:27:02;;;;;;;30.52;18.27;;;15.00;99.90;;;;;;5072400;28;20017;-55
2022/10/12 12:29:28;;;;;;;33.10;17.98;;;15.00;99.90;;;;;;5072617;28;20023;-56
2022/10/12 12:31:58;;;;;;;39.30;17.98;;;14.80;99.90;;;;;;5071952;28;20023;-57
2022/10/12 12:34:25;;;;;;;23.85;17.02;;;14.60;99.90;;;;;;5071158;28;20099;-56
2022/10/12 12:36:51;;;;;;;23.58;16.80;;;14.60;99.90;;;;;;5072364;28;20017;-56
2022/10/12 12:39:30;;;;;;;22.90;16.40;;;14.60;99.90;;;;;;5071864;28;20074;-55
2022/10/12 12:42:02;;;;;;;28.45;16.00;;;14.80;99.90;;;;;;5072001;28;20476;-55
2022/10/12 12:44:35;;;;;;;31.88;19.35;;;14.80;99.90;;;;;;5072011;28;20021;-55